createdAt,value
2018-05-02T00:00:24.711Z,0
2018-05-02T00:01:27.103Z,0
2018-05-02T00:02:29.471Z,0
2018-05-02T00:03:31.850Z,0
2018-05-02T00:04:34.217Z,0
2018-05-02T00:05:36.599Z,0
2018-05-02T00:06:38.972Z,0
2018-05-02T00:07:41.800Z,0
2018-05-02T00:08:44.526Z,0
2018-05-02T00:09:47.009Z,0
2018-05-02T00:10:49.872Z,0
2018-05-02T00:11:52.317Z,0
2018-05-02T00:12:55.024Z,0
2018-05-02T00:13:57.681Z,0
2018-05-02T00:15:00.060Z,0
2018-05-02T00:16:02.708Z,0
2018-05-02T00:17:05.090Z,0
2018-05-02T00:18:07.821Z,0
2018-05-02T00:19:10.133Z,0
2018-05-02T00:20:12.505Z,0
2018-05-02T00:21:14.891Z,0
2018-05-02T00:22:17.248Z,0
2018-05-02T00:23:19.642Z,0
2018-05-02T00:24:22.021Z,0
2018-05-02T00:25:24.396Z,0
2018-05-02T00:26:27.165Z,0
2018-05-02T00:27:29.813Z,0
2018-05-02T00:28:32.226Z,0
2018-05-02T00:29:34.546Z,0
2018-05-02T00:30:37.603Z,0
2018-05-02T00:31:39.973Z,0
2018-05-02T00:32:42.634Z,0
2018-05-02T00:33:45.006Z,0
2018-05-02T00:34:47.378Z,0
2018-05-02T00:35:49.752Z,0
2018-05-02T00:36:52.130Z,0
2018-05-02T00:37:54.516Z,0
2018-05-02T00:38:56.888Z,0
2018-05-02T00:39:59.266Z,0
2018-05-02T00:41:01.924Z,0
2018-05-02T00:42:04.301Z,0
2018-05-02T00:43:06.683Z,0
2018-05-02T00:44:09.041Z,0
2018-05-02T00:45:11.417Z,0
2018-05-02T00:46:13.792Z,0
2018-05-02T00:47:16.546Z,0
2018-05-02T00:48:18.917Z,0
2018-05-02T00:49:21.300Z,0
2018-05-02T00:50:23.954Z,0
2018-05-02T00:51:26.334Z,0
2018-05-02T00:52:28.710Z,0
2018-05-02T00:53:31.090Z,0
2018-05-02T00:54:33.457Z,0
2018-05-02T00:55:35.845Z,0
2018-05-02T00:56:38.198Z,0
2018-05-02T00:57:40.957Z,0
2018-05-02T00:58:43.337Z,0
2018-05-02T00:59:45.698Z,0
2018-05-02T01:00:48.073Z,0
2018-05-02T01:01:50.443Z,0
2018-05-02T01:02:52.827Z,0
2018-05-02T01:03:55.475Z,0
2018-05-02T01:04:57.864Z,0
2018-05-02T01:06:00.523Z,0
2018-05-02T01:07:03.205Z,0
2018-05-02T01:08:05.582Z,0
2018-05-02T01:09:08.243Z,0
2018-05-02T01:10:10.927Z,0
2018-05-02T01:11:13.577Z,0
2018-05-02T01:12:15.947Z,0
2018-05-02T01:13:18.603Z,0
2018-05-02T01:14:20.972Z,0
2018-05-02T01:15:23.353Z,0
2018-05-02T01:16:25.730Z,0
2018-05-02T01:17:28.396Z,0
2018-05-02T01:18:30.784Z,0
2018-05-02T01:19:33.164Z,0
2018-05-02T01:20:35.558Z,0
2018-05-02T01:21:37.928Z,0
2018-05-02T01:22:40.299Z,0
2018-05-02T01:23:43.022Z,0
2018-05-02T01:24:45.391Z,0
2018-05-02T01:25:47.774Z,0
2018-05-02T01:26:50.429Z,0
2018-05-02T01:27:53.082Z,0
2018-05-02T01:28:55.460Z,0
2018-05-02T01:29:58.214Z,0
2018-05-02T01:31:00.581Z,0
2018-05-02T01:32:02.985Z,0
2018-05-02T01:33:05.639Z,0
2018-05-02T01:34:08.011Z,0
2018-05-02T01:35:10.698Z,0
2018-05-02T01:36:13.069Z,0
2018-05-02T01:37:15.445Z,0
2018-05-02T01:38:17.834Z,0
2018-05-02T01:39:20.207Z,0
2018-05-02T01:40:22.858Z,0
2018-05-02T01:41:25.239Z,0
2018-05-02T01:42:27.917Z,0
2018-05-02T01:43:30.288Z,0
2018-05-02T01:44:32.676Z,0
2018-05-02T01:45:35.034Z,0
2018-05-02T01:46:37.716Z,0
2018-05-02T01:47:40.082Z,0
2018-05-02T01:48:42.455Z,0
2018-05-02T01:49:44.832Z,0
2018-05-02T01:50:47.198Z,0
2018-05-02T01:51:49.568Z,0
2018-05-02T01:52:51.939Z,0
2018-05-02T01:53:54.301Z,0
2018-05-02T01:54:56.684Z,0
2018-05-02T01:55:59.054Z,0
2018-05-02T01:57:01.433Z,0
2018-05-02T01:58:03.803Z,0
2018-05-02T01:59:06.745Z,0
2018-05-02T02:00:09.182Z,0
2018-05-02T02:01:11.492Z,0
2018-05-02T02:02:13.864Z,0
2018-05-02T02:03:16.241Z,0
2018-05-02T02:04:18.893Z,0
2018-05-02T02:05:21.563Z,0
2018-05-02T02:06:23.934Z,0
2018-05-02T02:07:26.310Z,0
2018-05-02T02:08:29.061Z,0
2018-05-02T02:09:31.440Z,0
2018-05-02T02:10:33.808Z,0
2018-05-02T02:11:36.184Z,0
2018-05-02T02:12:38.548Z,0
2018-05-02T02:13:41.303Z,0
2018-05-02T02:14:43.677Z,0
2018-05-02T02:15:46.042Z,0
2018-05-02T02:16:48.421Z,0
2018-05-02T02:17:50.786Z,0
2018-05-02T02:18:53.153Z,0
2018-05-02T02:19:55.517Z,0
2018-05-02T02:20:58.177Z,0
2018-05-02T02:22:00.824Z,0
2018-05-02T02:23:03.201Z,0
2018-05-02T02:24:05.574Z,0
2018-05-02T02:25:08.230Z,0
2018-05-02T02:26:10.608Z,0
2018-05-02T02:27:12.987Z,0
2018-05-02T02:28:15.364Z,0
2018-05-02T02:29:18.026Z,0
2018-05-02T02:30:20.397Z,0
2018-05-02T02:31:23.149Z,0
2018-05-02T02:32:25.527Z,0
2018-05-02T02:33:28.570Z,0
2018-05-02T02:34:31.231Z,0
2018-05-02T02:35:33.604Z,0
2018-05-02T02:36:36.263Z,0
2018-05-02T02:37:39.685Z,0
2018-05-02T02:38:42.741Z,0
2018-05-02T02:39:45.403Z,0
2018-05-02T02:40:47.779Z,0
2018-05-02T02:41:50.456Z,0
2018-05-02T02:42:53.109Z,0
2018-05-02T02:43:55.488Z,0
2018-05-02T02:44:57.850Z,0
2018-05-02T02:46:00.523Z,0
2018-05-02T02:47:03.169Z,0
2018-05-02T02:48:05.821Z,0
2018-05-02T02:49:08.204Z,0
2018-05-02T02:50:11.248Z,0
2018-05-02T02:51:13.749Z,0
2018-05-02T02:52:16.132Z,0
2018-05-02T02:53:19.181Z,0
2018-05-02T02:54:22.216Z,0
2018-05-02T02:55:24.647Z,0
2018-05-02T02:56:27.382Z,0
2018-05-02T02:57:29.757Z,0
2018-05-02T02:58:32.419Z,4
2018-05-02T02:59:34.795Z,4
2018-05-02T03:00:37.469Z,0
2018-05-02T03:01:40.130Z,0
2018-05-02T03:02:43.307Z,4
2018-05-02T03:03:45.676Z,4
2018-05-02T03:04:48.337Z,8
2018-05-02T03:05:50.711Z,4
2018-05-02T03:06:53.671Z,8
2018-05-02T03:07:56.318Z,4
2018-05-02T03:08:58.691Z,8
2018-05-02T03:10:01.737Z,8
2018-05-02T03:11:04.575Z,8
2018-05-02T03:12:07.539Z,12
2018-05-02T03:13:10.199Z,16
2018-05-02T03:14:12.565Z,16
2018-05-02T03:15:15.624Z,20
2018-05-02T03:16:17.987Z,24
2018-05-02T03:17:20.375Z,24
2018-05-02T03:18:23.109Z,28
2018-05-02T03:19:25.462Z,36
2018-05-02T03:20:28.123Z,40
2018-05-02T03:21:30.809Z,44
2018-05-02T03:22:33.174Z,52
2018-05-02T03:23:35.553Z,60
2018-05-02T03:24:38.483Z,68
2018-05-02T03:25:40.851Z,80
2018-05-02T03:26:43.519Z,88
2018-05-02T03:27:45.884Z,100
2018-05-02T03:28:48.273Z,112
2018-05-02T03:29:50.634Z,124
2018-05-02T03:30:53.305Z,144
2018-05-02T03:31:55.679Z,160
2018-05-02T03:32:58.052Z,176
2018-05-02T03:34:01.081Z,192
2018-05-02T03:35:03.455Z,212
2018-05-02T03:36:05.814Z,236
2018-05-02T03:37:08.190Z,260
2018-05-02T03:38:10.563Z,280
2018-05-02T03:39:13.235Z,308
2018-05-02T03:40:15.607Z,336
2018-05-02T03:41:18.264Z,364
2018-05-02T03:42:21.032Z,392
2018-05-02T03:43:23.391Z,424
2018-05-02T03:44:26.323Z,460
2018-05-02T03:45:28.983Z,492
2018-05-02T03:46:31.355Z,528
2018-05-02T03:47:34.002Z,568
2018-05-02T03:48:36.372Z,608
2018-05-02T03:49:38.739Z,644
2018-05-02T03:50:41.694Z,684
2018-05-02T03:51:44.065Z,724
2018-05-02T03:52:46.420Z,764
2018-05-02T03:53:49.080Z,808
2018-05-02T03:54:51.455Z,852
2018-05-02T03:55:54.099Z,892
2018-05-02T03:56:56.483Z,936
2018-05-02T03:57:58.851Z,976
2018-05-02T03:59:01.220Z,1016
2018-05-02T04:00:03.610Z,1060
2018-05-02T04:01:05.977Z,1112
2018-05-02T04:02:08.350Z,1160
2018-05-02T04:03:10.712Z,1212
2018-05-02T04:04:13.386Z,1260
2018-05-02T04:05:15.746Z,1304
2018-05-02T04:06:18.401Z,1352
2018-05-02T04:07:21.156Z,1396
2018-05-02T04:08:23.533Z,1448
2018-05-02T04:09:26.178Z,1500
2018-05-02T04:10:28.553Z,1544
2018-05-02T04:11:30.918Z,1588
2018-05-02T04:12:33.298Z,1636
2018-05-02T04:13:35.678Z,1684
2018-05-02T04:14:38.043Z,1728
2018-05-02T04:15:40.691Z,1772
2018-05-02T04:16:43.353Z,1820
2018-05-02T04:17:45.720Z,1860
2018-05-02T04:18:48.173Z,1904
2018-05-02T04:19:51.235Z,1944
2018-05-02T04:20:53.610Z,1988
2018-05-02T04:21:56.261Z,2024
2018-05-02T04:22:58.636Z,2068
2018-05-02T04:24:00.998Z,2108
2018-05-02T04:25:03.648Z,2148
2018-05-02T04:26:06.112Z,2192
2018-05-02T04:27:08.803Z,2228
2018-05-02T04:28:11.579Z,2268
2018-05-02T04:29:14.231Z,2308
2018-05-02T04:30:16.603Z,2344
2018-05-02T04:31:18.976Z,2376
2018-05-02T04:32:21.930Z,2424
2018-05-02T04:33:24.580Z,2460
2018-05-02T04:34:26.965Z,2496
2018-05-02T04:35:29.334Z,2532
2018-05-02T04:36:31.978Z,2568
2018-05-02T04:37:34.746Z,2604
2018-05-02T04:38:37.114Z,2640
2018-05-02T04:39:39.484Z,2680
2018-05-02T04:40:42.141Z,2716
2018-05-02T04:41:44.797Z,2752
2018-05-02T04:42:47.172Z,2784
2018-05-02T04:43:49.542Z,2812
2018-05-02T04:44:51.908Z,2848
2018-05-02T04:45:54.281Z,2884
2018-05-02T04:46:56.647Z,2916
2018-05-02T04:47:59.030Z,2956
2018-05-02T04:49:01.403Z,2992
2018-05-02T04:50:03.780Z,3020
2018-05-02T04:51:06.159Z,3048
2018-05-02T04:52:08.810Z,3088
2018-05-02T04:53:11.190Z,3120
2018-05-02T04:54:13.555Z,3156
2018-05-02T04:55:16.227Z,3192
2018-05-02T04:56:18.926Z,3220
2018-05-02T04:57:21.304Z,3256
2018-05-02T04:58:23.683Z,3288
2018-05-02T04:59:26.132Z,3324
2018-05-02T05:00:28.782Z,3356
2018-05-02T05:01:31.141Z,3384
2018-05-02T05:02:33.520Z,3424
2018-05-02T05:03:36.176Z,3460
2018-05-02T05:04:38.861Z,3500
2018-05-02T05:05:41.234Z,3536
2018-05-02T05:06:43.622Z,3560
2018-05-02T05:07:46.883Z,3596
2018-05-02T05:08:49.267Z,3632
2018-05-02T05:09:52.024Z,3664
2018-05-02T05:10:54.383Z,3704
2018-05-02T05:11:56.756Z,3744
2018-05-02T05:12:59.408Z,3776
2018-05-02T05:14:01.778Z,3808
2018-05-02T05:15:04.147Z,3844
2018-05-02T05:16:06.806Z,3872
2018-05-02T05:17:09.178Z,3900
2018-05-02T05:18:11.935Z,3928
2018-05-02T05:19:14.304Z,3964
2018-05-02T05:20:16.683Z,4000
2018-05-02T05:21:19.050Z,4028
2018-05-02T05:22:21.727Z,4060
2018-05-02T05:23:24.087Z,4088
2018-05-02T05:24:26.463Z,4136
2018-05-02T05:25:29.125Z,4180
2018-05-02T05:26:31.496Z,4220
2018-05-02T05:27:34.264Z,4280
2018-05-02T05:28:36.637Z,4332
2018-05-02T05:29:39.008Z,4404
2018-05-02T05:30:41.667Z,4460
2018-05-02T05:31:44.329Z,4516
2018-05-02T05:32:46.694Z,4572
2018-05-02T05:33:49.364Z,4624
2018-05-02T05:34:51.737Z,4672
2018-05-02T05:35:54.107Z,4676
2018-05-02T05:36:56.485Z,4652
2018-05-02T05:37:58.854Z,4596
2018-05-02T05:39:01.227Z,4444
2018-05-02T05:40:03.597Z,4248
2018-05-02T05:41:05.960Z,4080
2018-05-02T05:42:08.412Z,4220
2018-05-02T05:43:10.705Z,3868
2018-05-02T05:44:13.364Z,3924
2018-05-02T05:45:15.743Z,4060
2018-05-02T05:46:18.117Z,4300
2018-05-02T05:47:20.492Z,4284
2018-05-02T05:48:22.876Z,4400
2018-05-02T05:49:25.516Z,4276
2018-05-02T05:50:28.189Z,4464
2018-05-02T05:51:30.566Z,4728
2018-05-02T05:52:32.935Z,4660
2018-05-02T05:53:35.298Z,4704
2018-05-02T05:54:37.683Z,4780
2018-05-02T05:55:40.723Z,4796
2018-05-02T05:56:43.099Z,4916
2018-05-02T05:57:46.166Z,4916
2018-05-02T05:58:48.809Z,4828
2018-05-02T05:59:51.470Z,4796
2018-05-02T06:00:54.164Z,4952
2018-05-02T06:01:57.712Z,4948
2018-05-02T06:03:00.089Z,5176
2018-05-02T06:04:02.466Z,5280
2018-05-02T06:05:04.841Z,5132
2018-05-02T06:06:07.221Z,5160
2018-05-02T06:07:09.611Z,5220
2018-05-02T06:08:11.970Z,5316
2018-05-02T06:09:14.356Z,5464
2018-05-02T06:10:16.726Z,5524
2018-05-02T06:11:19.103Z,5608
2018-05-02T06:12:21.474Z,5816
2018-05-02T06:13:23.863Z,5840
2018-05-02T06:14:26.232Z,5864
2018-05-02T06:15:28.609Z,5892
2018-05-02T06:16:31.275Z,5976
2018-05-02T06:17:33.646Z,6176
2018-05-02T06:18:36.413Z,6336
2018-05-02T06:19:39.086Z,6500
2018-05-02T06:20:41.454Z,6600
2018-05-02T06:21:44.124Z,6636
2018-05-02T06:22:46.492Z,6608
2018-05-02T06:23:48.868Z,6528
2018-05-02T06:24:51.530Z,6424
2018-05-02T06:25:53.911Z,6372
2018-05-02T06:26:56.287Z,6364
2018-05-02T06:27:59.051Z,6448
2018-05-02T06:29:01.419Z,6372
2018-05-02T06:30:03.808Z,6448
2018-05-02T06:31:06.171Z,6596
2018-05-02T06:32:08.551Z,6452
2018-05-02T06:33:10.920Z,6708
2018-05-02T06:34:13.302Z,6596
2018-05-02T06:35:15.957Z,6548
2018-05-02T06:36:18.624Z,6620
2018-05-02T06:37:21.267Z,6656
2018-05-02T06:38:23.649Z,6604
2018-05-02T06:39:26.298Z,6552
2018-05-02T06:40:28.678Z,6912
2018-05-02T06:41:31.069Z,6860
2018-05-02T06:42:33.439Z,6872
2018-05-02T06:43:36.589Z,6740
2018-05-02T06:44:38.862Z,6708
2018-05-02T06:45:41.247Z,6696
2018-05-02T06:46:43.885Z,6764
2018-05-02T06:47:46.273Z,6776
2018-05-02T06:48:48.636Z,6792
2018-05-02T06:49:51.292Z,7080
2018-05-02T06:50:53.677Z,7212
2018-05-02T06:51:56.438Z,7256
2018-05-02T06:52:58.812Z,7320
2018-05-02T06:54:01.197Z,7324
2018-05-02T06:55:03.958Z,7356
2018-05-02T06:56:06.624Z,7372
2018-05-02T06:57:08.994Z,7536
2018-05-02T06:58:11.372Z,7580
2018-05-02T06:59:13.741Z,7684
2018-05-02T07:00:16.116Z,7736
2018-05-02T07:01:18.484Z,7648
2018-05-02T07:02:20.861Z,7732
2018-05-02T07:03:23.228Z,7772
2018-05-02T07:04:25.613Z,7888
2018-05-02T07:05:27.987Z,8064
2018-05-02T07:06:30.661Z,8172
2018-05-02T07:07:33.311Z,8240
2018-05-02T07:08:35.693Z,8224
2018-05-02T07:09:38.653Z,8312
2018-05-02T07:10:41.035Z,8456
2018-05-02T07:11:43.685Z,8536
2018-05-02T07:12:46.079Z,8620
2018-05-02T07:13:48.448Z,8716
2018-05-02T07:14:51.115Z,8776
2018-05-02T07:15:53.496Z,8864
2018-05-02T07:16:55.863Z,8904
2018-05-02T07:17:58.239Z,8968
2018-05-02T07:19:00.631Z,9032
2018-05-02T07:20:03.009Z,9116
2018-05-02T07:21:05.394Z,9232
2018-05-02T07:22:07.783Z,9316
2018-05-02T07:23:10.457Z,9408
2018-05-02T07:24:12.864Z,9504
2018-05-02T07:25:15.620Z,9596
2018-05-02T07:26:18.003Z,9704
2018-05-02T07:27:20.379Z,9796
2018-05-02T07:28:23.126Z,9916
2018-05-02T07:29:25.621Z,10060
2018-05-02T07:30:27.991Z,10140
2018-05-02T07:31:30.380Z,10296
2018-05-02T07:32:32.915Z,10428
2018-05-02T07:33:35.264Z,10480
2018-05-02T07:34:37.935Z,10564
2018-05-02T07:35:40.321Z,10656
2018-05-02T07:36:42.796Z,10768
2018-05-02T07:37:45.230Z,10956
2018-05-02T07:38:47.601Z,11124
2018-05-02T07:39:49.981Z,11220
2018-05-02T07:40:52.693Z,11324
2018-05-02T07:41:55.096Z,11532
2018-05-02T07:42:57.474Z,11848
2018-05-02T07:44:00.747Z,12180
2018-05-02T07:45:03.148Z,12264
2018-05-02T07:46:05.523Z,12260
2018-05-02T07:47:07.919Z,12068
2018-05-02T07:48:10.685Z,12144
2018-05-02T07:49:13.404Z,12204
2018-05-02T07:50:15.824Z,12468
2018-05-02T07:51:18.489Z,12828
2018-05-02T07:52:21.162Z,13120
2018-05-02T07:53:24.080Z,13512
2018-05-02T07:54:26.474Z,13872
2018-05-02T07:55:29.137Z,14080
2018-05-02T07:56:31.631Z,13964
2018-05-02T07:57:34.428Z,13936
2018-05-02T07:58:37.569Z,14140
2018-05-02T07:59:39.962Z,14804
2018-05-02T08:00:42.336Z,15076
2018-05-02T08:01:45.050Z,14840
2018-05-02T08:02:47.769Z,14984
2018-05-02T08:03:50.216Z,15260
2018-05-02T08:04:53.280Z,15512
2018-05-02T08:05:55.671Z,16096
2018-05-02T08:06:58.329Z,17632
2018-05-02T08:08:00.716Z,32384
2018-05-02T08:09:03.792Z,39968
2018-05-02T08:10:06.178Z,45728
2018-05-02T08:11:08.642Z,51456
2018-05-02T08:12:10.972Z,46784
2018-05-02T08:13:13.350Z,62112
2018-05-02T08:14:15.739Z,56032
2018-05-02T08:15:18.417Z,40320
2018-05-02T08:16:20.899Z,35072
2018-05-02T08:17:23.491Z,28256
2018-05-02T08:18:25.880Z,28384
2018-05-02T08:19:28.241Z,38592
2018-05-02T08:20:30.618Z,42848
2018-05-02T08:21:33.027Z,42464
2018-05-02T08:22:35.700Z,40032
2018-05-02T08:23:38.086Z,43552
2018-05-02T08:24:40.476Z,49312
2018-05-02T08:25:42.846Z,52288
2018-05-02T08:26:45.647Z,52256
2018-05-02T08:27:49.039Z,52384
2018-05-02T08:28:51.524Z,48128
2018-05-02T08:29:53.919Z,65504
2018-05-02T08:30:56.395Z,91136
2018-05-02T08:31:59.059Z,91808
2018-05-02T08:33:01.441Z,69632
2018-05-02T08:34:03.882Z,77536
2018-05-02T08:35:06.264Z,78080
2018-05-02T08:36:08.935Z,106880
2018-05-02T08:37:11.608Z,88992
2018-05-02T08:38:14.554Z,87872
2018-05-02T08:39:17.344Z,104928
2018-05-02T08:40:19.727Z,107552
2018-05-02T08:41:22.105Z,104512
2018-05-02T08:42:24.485Z,99040
2018-05-02T08:43:26.874Z,90368
2018-05-02T08:44:29.245Z,98560
2018-05-02T08:45:31.702Z,96640
2018-05-02T08:46:34.157Z,87520
2018-05-02T08:47:36.821Z,72576
2018-05-02T08:48:39.204Z,82528
2018-05-02T08:49:41.584Z,92064
2018-05-02T08:50:43.980Z,87488
2018-05-02T08:51:46.721Z,78496
2018-05-02T08:52:49.113Z,85312
2018-05-02T08:53:51.772Z,79104
2018-05-02T08:54:54.153Z,85632
2018-05-02T08:55:56.528Z,82976
2018-05-02T08:56:58.926Z,98752
2018-05-02T08:58:01.585Z,65056
2018-05-02T08:59:04.243Z,75072
2018-05-02T09:00:06.620Z,111040
2018-05-02T09:01:09.292Z,109824
2018-05-02T09:02:11.664Z,93472
2018-05-02T09:03:14.055Z,42112
2018-05-02T09:04:16.434Z,44928
2018-05-02T09:05:18.820Z,37472
2018-05-02T09:06:21.207Z,34848
2018-05-02T09:07:23.599Z,35776
2018-05-02T09:08:25.981Z,51648
2018-05-02T09:09:28.354Z,35552
2018-05-02T09:10:30.738Z,32608
2018-05-02T09:11:33.125Z,34592
2018-05-02T09:12:35.512Z,40608
2018-05-02T09:13:37.896Z,46592
2018-05-02T09:14:40.287Z,45664
2018-05-02T09:15:42.681Z,52928
2018-05-02T09:16:45.063Z,51072
2018-05-02T09:17:47.458Z,59232
2018-05-02T09:18:50.102Z,57312
2018-05-02T09:19:52.496Z,49440
2018-05-02T09:20:54.879Z,56928
2018-05-02T09:21:57.543Z,60576
2018-05-02T09:22:59.921Z,65568
2018-05-02T09:24:02.293Z,60448
2018-05-02T09:25:04.966Z,58592
2018-05-02T09:26:07.377Z,67776
2018-05-02T09:27:10.030Z,70016
2018-05-02T09:28:12.692Z,81536
2018-05-02T09:29:15.088Z,93088
2018-05-02T09:30:17.466Z,99648
2018-05-02T09:31:19.858Z,116128
2018-05-02T09:32:22.253Z,117728
2018-05-02T09:33:24.910Z,114880
2018-05-02T09:34:27.306Z,98432
2018-05-02T09:35:29.980Z,106528
2018-05-02T09:36:33.045Z,94368
2018-05-02T09:37:35.823Z,76224
2018-05-02T09:38:38.508Z,55648
2018-05-02T09:39:40.899Z,65440
2018-05-02T09:40:43.282Z,75680
2018-05-02T09:41:45.669Z,91552
2018-05-02T09:42:48.048Z,84896
2018-05-02T09:43:50.477Z,64640
2018-05-02T09:44:52.883Z,79104
2018-05-02T09:45:55.268Z,87392
2018-05-02T09:46:57.658Z,104448
2018-05-02T09:48:00.037Z,85088
2018-05-02T09:49:02.419Z,107552
2018-05-02T09:50:04.805Z,92384
2018-05-02T09:51:07.510Z,99872
2018-05-02T09:52:09.927Z,112096
2018-05-02T09:53:12.279Z,99904
2018-05-02T09:54:15.091Z,86176
2018-05-02T09:55:17.478Z,80608
2018-05-02T09:56:19.875Z,78912
2018-05-02T09:57:22.254Z,52192
2018-05-02T09:58:24.643Z,54272
2018-05-02T09:59:27.036Z,70336
2018-05-02T10:00:29.427Z,90016
2018-05-02T10:01:32.185Z,87712
2018-05-02T10:02:34.869Z,84704
2018-05-02T10:03:37.256Z,99360
2018-05-02T10:04:39.646Z,107296
2018-05-02T10:05:42.054Z,108928
2018-05-02T10:06:44.724Z,113536
2018-05-02T10:07:47.501Z,117120
2018-05-02T10:08:49.890Z,107296
2018-05-02T10:09:53.052Z,104224
2018-05-02T10:10:55.443Z,121504
2018-05-02T10:11:57.835Z,112320
2018-05-02T10:13:00.213Z,104128
2018-05-02T10:14:02.923Z,111712
2018-05-02T10:15:05.314Z,112512
2018-05-02T10:16:08.090Z,110624
2018-05-02T10:17:10.485Z,112160
2018-05-02T10:18:13.165Z,116640
2018-05-02T10:19:15.846Z,114816
2018-05-02T10:20:18.247Z,115776
2018-05-02T10:21:20.652Z,110848
2018-05-02T10:22:23.597Z,129632
2018-05-02T10:23:26.296Z,129440
2018-05-02T10:24:28.686Z,138176
2018-05-02T10:25:31.368Z,143936
2018-05-02T10:26:33.761Z,137408
2018-05-02T10:27:36.157Z,132768
2018-05-02T10:28:38.548Z,123200
2018-05-02T10:29:40.948Z,117760
2018-05-02T10:30:43.338Z,120736
2018-05-02T10:31:45.731Z,120672
2018-05-02T10:32:48.511Z,122144
2018-05-02T10:33:50.913Z,123264
2018-05-02T10:34:53.309Z,120992
2018-05-02T10:35:55.709Z,121024
2018-05-02T10:36:58.165Z,128384
2018-05-02T10:38:01.368Z,122272
2018-05-02T10:39:04.040Z,123424
2018-05-02T10:40:06.436Z,119008
2018-05-02T10:41:08.824Z,120480
2018-05-02T10:42:11.214Z,121888
2018-05-02T10:43:13.640Z,127392
2018-05-02T10:44:16.000Z,127520
2018-05-02T10:45:18.391Z,125376
2018-05-02T10:46:20.785Z,128928
2018-05-02T10:47:23.172Z,127744
2018-05-02T10:48:25.574Z,125760
2018-05-02T10:49:28.248Z,140032
2018-05-02T10:50:30.744Z,138752
2018-05-02T10:51:33.442Z,127456
2018-05-02T10:52:35.844Z,116096
2018-05-02T10:53:38.627Z,129408
2018-05-02T10:54:41.307Z,133760
2018-05-02T10:55:43.698Z,135776
2018-05-02T10:56:46.096Z,130080
2018-05-02T10:57:48.493Z,127264
2018-05-02T10:58:50.901Z,128064
2018-05-02T10:59:53.294Z,124224
2018-05-02T11:00:55.682Z,113024
2018-05-02T11:01:58.071Z,119680
2018-05-02T11:03:00.462Z,123360
2018-05-02T11:04:03.415Z,118880
2018-05-02T11:05:05.815Z,118304
2018-05-02T11:06:08.188Z,109632
2018-05-02T11:07:10.576Z,106880
2018-05-02T11:08:12.987Z,97536
2018-05-02T11:09:15.665Z,109696
2018-05-02T11:10:18.340Z,128064
2018-05-02T11:11:20.721Z,124544
2018-05-02T11:12:23.116Z,121216
2018-05-02T11:13:25.506Z,118656
2018-05-02T11:14:27.911Z,125600
2018-05-02T11:15:30.578Z,115008
2018-05-02T11:16:32.974Z,126432
2018-05-02T11:17:35.377Z,122016
2018-05-02T11:18:37.773Z,123968
2018-05-02T11:19:40.830Z,119744
2018-05-02T11:20:43.227Z,119808
2018-05-02T11:21:45.894Z,131200
2018-05-02T11:22:48.740Z,122784
2018-05-02T11:23:51.075Z,109984
2018-05-02T11:24:53.468Z,129568
2018-05-02T11:25:56.140Z,118240
2018-05-02T11:26:58.541Z,120256
2018-05-02T11:28:00.928Z,105664
2018-05-02T11:29:03.338Z,90144
2018-05-02T11:30:05.710Z,89152
2018-05-02T11:31:08.384Z,89888
2018-05-02T11:32:11.171Z,87584
2018-05-02T11:33:13.943Z,88320
2018-05-02T11:34:16.345Z,68160
2018-05-02T11:35:18.734Z,95136
2018-05-02T11:36:21.515Z,85888
2018-05-02T11:37:23.914Z,96896
2018-05-02T11:38:26.699Z,83872
2018-05-02T11:39:29.085Z,74112
2018-05-02T11:40:32.258Z,70080
2018-05-02T11:41:34.630Z,96640
2018-05-02T11:42:37.021Z,91456
2018-05-02T11:43:39.700Z,84384
2018-05-02T11:44:42.870Z,100448
2018-05-02T11:45:45.647Z,83168
2018-05-02T11:46:48.058Z,87648
2018-05-02T11:47:50.746Z,85216
2018-05-02T11:48:53.439Z,80160
2018-05-02T11:49:56.118Z,92704
2018-05-02T11:50:58.901Z,76832
2018-05-02T11:52:01.585Z,76352
2018-05-02T11:53:03.971Z,85024
2018-05-02T11:54:07.032Z,78944
2018-05-02T11:55:09.700Z,76192
2018-05-02T11:56:12.097Z,82816
2018-05-02T11:57:14.495Z,87456
2018-05-02T11:58:17.169Z,65888
2018-05-02T11:59:19.567Z,69184
2018-05-02T12:00:21.954Z,79776
2018-05-02T12:01:24.357Z,85504
2018-05-02T12:02:26.749Z,98432
2018-05-02T12:03:29.218Z,86016
2018-05-02T12:04:31.547Z,88160
2018-05-02T12:05:33.951Z,84352
2018-05-02T12:06:36.345Z,60224
2018-05-02T12:07:38.743Z,63360
2018-05-02T12:08:41.144Z,96864
2018-05-02T12:09:43.541Z,83456
2018-05-02T12:10:46.319Z,76736
2018-05-02T12:11:48.782Z,67232
2018-05-02T12:12:51.356Z,72160
2018-05-02T12:13:54.244Z,83040
2018-05-02T12:14:57.074Z,76480
2018-05-02T12:15:59.832Z,62976
2018-05-02T12:17:02.241Z,63392
2018-05-02T12:18:04.679Z,69056
2018-05-02T12:19:07.420Z,57984
2018-05-02T12:20:10.149Z,66112
2018-05-02T12:21:12.912Z,59456
2018-05-02T12:22:15.338Z,56416
2018-05-02T12:23:18.085Z,57376
2018-05-02T12:24:20.511Z,57696
2018-05-02T12:25:22.947Z,66016
2018-05-02T12:26:25.381Z,56608
2018-05-02T12:27:27.780Z,55232
2018-05-02T12:28:30.184Z,59296
2018-05-02T12:29:32.611Z,68512
2018-05-02T12:30:35.214Z,62144
2018-05-02T12:31:37.910Z,54688
2018-05-02T12:32:40.335Z,55808
2018-05-02T12:33:42.736Z,61568
2018-05-02T12:34:45.461Z,65472
2018-05-02T12:35:47.869Z,57792
2018-05-02T12:36:50.260Z,65760
2018-05-02T12:37:53.082Z,66720
2018-05-02T12:38:55.494Z,71328
2018-05-02T12:39:58.286Z,65152
2018-05-02T12:41:00.684Z,66624
2018-05-02T12:42:03.832Z,67264
2018-05-02T12:43:06.219Z,62144
2018-05-02T12:44:08.649Z,81408
2018-05-02T12:45:11.043Z,79680
2018-05-02T12:46:13.742Z,70432
2018-05-02T12:47:16.170Z,70944
2018-05-02T12:48:18.874Z,63200
2018-05-02T12:49:21.678Z,90784
2018-05-02T12:50:24.072Z,79520
2018-05-02T12:51:26.464Z,88704
2018-05-02T12:52:28.873Z,88288
2018-05-02T12:53:31.278Z,76032
2018-05-02T12:54:33.716Z,95360
2018-05-02T12:55:36.138Z,94112
2018-05-02T12:56:38.585Z,85856
2018-05-02T12:57:41.032Z,67072
2018-05-02T12:58:43.715Z,61312
2018-05-02T12:59:46.114Z,76288
2018-05-02T13:00:48.508Z,90688
2018-05-02T13:01:51.225Z,87808
2018-05-02T13:02:53.617Z,88608
2018-05-02T13:03:56.406Z,76000
2018-05-02T13:04:58.810Z,65312
2018-05-02T13:06:01.193Z,74272
2018-05-02T13:07:03.583Z,67360
2018-05-02T13:08:06.634Z,56192
2018-05-02T13:09:08.961Z,60000
2018-05-02T13:10:11.346Z,51168
2018-05-02T13:11:14.136Z,51488
2018-05-02T13:12:16.545Z,68960
2018-05-02T13:13:18.946Z,72416
2018-05-02T13:14:21.337Z,60896
2018-05-02T13:15:23.734Z,54144
2018-05-02T13:16:26.126Z,48224
2018-05-02T13:17:28.609Z,44256
2018-05-02T13:18:31.008Z,53312
2018-05-02T13:19:33.390Z,44800
2018-05-02T13:20:35.797Z,47456
2018-05-02T13:21:38.245Z,48544
2018-05-02T13:22:40.651Z,60640
2018-05-02T13:23:43.040Z,67936
2018-05-02T13:24:45.444Z,61216
2018-05-02T13:25:47.932Z,75488
2018-05-02T13:26:50.335Z,81792
2018-05-02T13:27:53.007Z,57024
2018-05-02T13:28:55.804Z,43296
2018-05-02T13:29:58.472Z,37280
2018-05-02T13:31:01.150Z,32320
2018-05-02T13:32:04.220Z,32448
2018-05-02T13:33:06.630Z,32224
2018-05-02T13:34:09.466Z,31872
2018-05-02T13:35:11.872Z,32288
2018-05-02T13:36:14.249Z,32448
2018-05-02T13:37:16.655Z,33888
2018-05-02T13:38:19.121Z,35584
2018-05-02T13:39:21.885Z,35648
2018-05-02T13:40:24.604Z,34784
2018-05-02T13:41:27.015Z,33312
2018-05-02T13:42:29.843Z,32064
2018-05-02T13:43:32.256Z,31904
2018-05-02T13:44:34.653Z,32416
2018-05-02T13:45:37.041Z,31808
2018-05-02T13:46:39.440Z,31104
2018-05-02T13:47:41.839Z,30688
2018-05-02T13:48:44.230Z,30176
2018-05-02T13:49:46.636Z,30720
2018-05-02T13:50:49.391Z,29120
2018-05-02T13:51:51.786Z,29504
2018-05-02T13:52:54.190Z,28256
2018-05-02T13:53:56.578Z,28128
2018-05-02T13:54:58.972Z,29472
2018-05-02T13:56:01.368Z,31872
2018-05-02T13:57:04.057Z,33728